createdAt,value
2023-04-21T00:00:28.527Z,98393.38
2023-04-21T00:02:56.686Z,98382.78
2023-04-21T00:05:25.023Z,98389.88
2023-04-21T00:07:53.133Z,98393.38
2023-04-21T00:10:21.234Z,98391.38
2023-04-21T00:12:49.343Z,98393.66
2023-04-21T00:15:17.373Z,98392.63
2023-04-21T00:17:47.135Z,98393.78
2023-04-21T00:20:15.472Z,98386.00
2023-04-21T00:22:43.803Z,98380.69
2023-04-21T00:25:11.888Z,98381.50
2023-04-21T00:27:40.002Z,98379.47
2023-04-21T00:30:09.493Z,98373.69
2023-04-21T00:32:38.460Z,98375.72
2023-04-21T00:35:08.895Z,98376.22
2023-04-21T00:37:37.292Z,98374.72
2023-04-21T00:40:06.150Z,98380.53
2023-04-21T00:42:34.352Z,98373.69
2023-04-21T00:45:02.647Z,98378.72
2023-04-21T00:47:32.273Z,98374.44
2023-04-21T00:50:00.744Z,98372.19
2023-04-21T00:52:30.835Z,98369.94
2023-04-21T00:54:59.099Z,98364.59
2023-04-21T00:57:28.784Z,98367.88
2023-04-21T00:59:56.930Z,98369.41
2023-04-21T01:02:26.340Z,98369.94
2023-04-21T01:04:54.558Z,98373.97
2023-04-21T01:07:22.774Z,98371.19
2023-04-21T01:09:52.172Z,98367.41
2023-04-21T01:12:20.531Z,98367.63
2023-04-21T01:14:48.570Z,98362.59
2023-04-21T01:17:18.991Z,98365.63
2023-04-21T01:19:49.085Z,98371.44
2023-04-21T01:22:18.776Z,98365.59
2023-04-21T01:24:48.961Z,98373.13
2023-04-21T01:27:19.305Z,98371.84
2023-04-21T01:29:50.557Z,98370.41
2023-04-21T01:32:20.946Z,98364.34
2023-04-21T01:34:50.687Z,98368.88
2023-04-21T01:37:23.052Z,98370.78
2023-04-21T01:39:55.398Z,98376.41
2023-04-21T01:42:26.036Z,98373.56
2023-04-21T01:44:54.765Z,98366.81
2023-04-21T01:47:23.113Z,98365.28
2023-04-21T01:49:51.242Z,98370.25
2023-04-21T01:52:21.832Z,98370.41
2023-04-21T01:54:50.191Z,98370.19
2023-04-21T01:57:18.982Z,98370.56
2023-04-21T01:59:47.113Z,98370.88
2023-04-21T02:02:15.311Z,98372.31
2023-04-21T02:04:43.425Z,98370.16
2023-04-21T02:07:11.379Z,98367.41
2023-04-21T02:09:42.956Z,98375.72
2023-04-21T02:12:11.304Z,98364.00
2023-04-21T02:14:43.624Z,98377.44
2023-04-21T02:17:11.832Z,98374.22
2023-04-21T02:19:39.857Z,98377.78
2023-04-21T02:22:08.470Z,98375.47
2023-04-21T02:24:36.487Z,98371.19
2023-04-21T02:27:06.154Z,98367.59
2023-04-21T02:29:34.187Z,98374.72
2023-04-21T02:32:10.783Z,98369.78
2023-04-21T02:34:46.412Z,98373.19
2023-04-21T02:37:14.507Z,98373.78
2023-04-21T02:39:43.771Z,98372.81
2023-04-21T02:42:13.184Z,98368.72
2023-04-21T02:44:42.961Z,98367.78
2023-04-21T02:47:10.958Z,98376.41
2023-04-21T02:49:42.349Z,98382.09
2023-04-21T02:52:10.610Z,98379.56
2023-04-21T02:54:38.858Z,98378.19
2023-04-21T02:57:06.899Z,98380.38
2023-04-21T02:59:36.380Z,98377.41
2023-04-21T03:02:04.869Z,98380.13
2023-04-21T03:04:34.296Z,98380.41
2023-04-21T03:07:02.586Z,98377.34
2023-04-21T03:09:30.708Z,98376.66
2023-04-21T03:12:00.664Z,98375.13
2023-04-21T03:14:28.735Z,98368.16
2023-04-21T03:16:58.230Z,98374.47
2023-04-21T03:19:26.346Z,98378.19
2023-04-21T03:21:54.420Z,98373.72
2023-04-21T03:24:23.135Z,98375.91
2023-04-21T03:26:51.384Z,98372.97
2023-04-21T03:29:19.787Z,98387.16
2023-04-21T03:31:48.114Z,98372.84
2023-04-21T03:34:17.713Z,98373.97
2023-04-21T03:36:46.134Z,98372.56
2023-04-21T03:41:47.406Z,98382.34
2023-04-21T03:44:20.381Z,98384.88
2023-04-21T03:46:48.588Z,98385.81
2023-04-21T03:49:18.102Z,98385.94
2023-04-21T03:51:46.242Z,98388.03
2023-04-21T03:54:14.334Z,98382.16
2023-04-21T03:56:42.454Z,98382.63
2023-04-21T03:59:10.701Z,98382.16
2023-04-21T04:01:38.860Z,98385.72
2023-04-21T04:04:07.019Z,98389.22
2023-04-21T04:06:36.952Z,98385.50
2023-04-21T04:09:05.092Z,98390.28
2023-04-21T04:11:33.263Z,98387.44
2023-04-21T04:14:02.204Z,98388.03
2023-04-21T04:16:30.665Z,98389.28
2023-04-21T04:18:58.735Z,98391.81
2023-04-21T04:21:27.638Z,98404.06
2023-04-21T04:23:57.043Z,98407.50
2023-04-21T04:26:25.760Z,98408.75
2023-04-21T04:28:56.365Z,98403.31
2023-04-21T04:31:25.729Z,98414.63
2023-04-21T04:33:55.477Z,98423.28
2023-04-21T04:36:30.658Z,98416.44
2023-04-21T04:39:04.557Z,98418.25
2023-04-21T04:41:33.747Z,98416.69
2023-04-21T04:44:01.863Z,98421.31
2023-04-21T04:46:30.059Z,98420.13
2023-04-21T04:48:58.143Z,98423.38
2023-04-21T04:51:26.421Z,98423.41
2023-04-21T04:53:54.395Z,98422.13
2023-04-21T04:56:24.231Z,98426.38
2023-04-21T04:58:52.448Z,98430.41
2023-04-21T05:01:21.088Z,98428.59
2023-04-21T05:03:49.184Z,98437.19
2023-04-21T05:06:17.446Z,98427.00
2023-04-21T05:08:45.912Z,98429.34
2023-04-21T05:11:13.996Z,98437.19
2023-04-21T05:13:43.522Z,98434.00
2023-04-21T05:16:11.707Z,98436.22
2023-04-21T05:18:39.757Z,98433.19
2023-04-21T05:21:08.409Z,98430.47
2023-04-21T05:23:36.440Z,98431.78
2023-04-21T05:26:05.057Z,98439.38
2023-04-21T05:28:33.344Z,98426.28
2023-04-21T05:31:02.855Z,98437.53
2023-04-21T05:33:32.066Z,98427.09
2023-04-21T05:36:00.348Z,98430.91
2023-04-21T05:38:28.407Z,98434.41
2023-04-21T05:40:56.812Z,98428.94
2023-04-21T05:43:24.966Z,98431.22
2023-04-21T05:45:53.160Z,98430.16
2023-04-21T05:48:23.522Z,98429.94
2023-04-21T05:50:51.593Z,98434.59
2023-04-21T05:53:19.648Z,98433.56
2023-04-21T05:55:47.748Z,98432.78
2023-04-21T05:58:15.759Z,98430.94
2023-04-21T06:00:43.971Z,98425.94
2023-04-21T06:03:12.200Z,98418.50
2023-04-21T06:05:41.774Z,98418.59
2023-04-21T06:08:09.851Z,98423.06
2023-04-21T06:10:38.062Z,98428.84
2023-04-21T06:13:06.146Z,98430.13
2023-04-21T06:15:34.268Z,98425.69
2023-04-21T06:18:02.358Z,98424.44
2023-04-21T06:20:30.469Z,98430.25
2023-04-21T06:22:59.868Z,98434.03
2023-04-21T06:25:28.199Z,98424.00
2023-04-21T06:27:56.447Z,98427.50
2023-04-21T06:30:24.714Z,98426.50
2023-04-21T06:32:52.747Z,98421.94
2023-04-21T06:35:21.471Z,98419.56
2023-04-21T06:37:49.533Z,98419.78
2023-04-21T06:40:19.189Z,98415.03
2023-04-21T06:42:47.200Z,98414.91
2023-04-21T06:45:15.526Z,98418.13
2023-04-21T06:47:44.063Z,98415.81
2023-04-21T06:50:12.301Z,98414.72
2023-04-21T06:52:40.323Z,98419.91
2023-04-21T06:55:09.341Z,98414.88
2023-04-21T06:57:38.662Z,98424.16
2023-04-21T07:00:08.026Z,98420.53
2023-04-21T07:02:36.180Z,98423.31
2023-04-21T07:05:04.762Z,98421.13
2023-04-21T07:07:32.783Z,98422.31
2023-04-21T07:10:00.934Z,98421.56
2023-04-21T07:12:29.037Z,98422.16
2023-04-21T07:14:58.637Z,98416.56
2023-04-21T07:17:26.920Z,98421.66
2023-04-21T07:19:55.026Z,98421.19
2023-04-21T07:22:23.093Z,98409.72
2023-04-21T07:24:51.403Z,98418.63
2023-04-21T07:27:20.281Z,98415.25
2023-04-21T07:29:48.361Z,98422.78
2023-04-21T07:32:17.798Z,98419.81
2023-04-21T07:34:47.069Z,98414.31
2023-04-21T07:37:15.130Z,98416.81
2023-04-21T07:39:43.514Z,98415.88
2023-04-21T07:42:11.939Z,98410.66
2023-04-21T07:44:40.053Z,98416.34
2023-04-21T07:47:08.203Z,98410.44
2023-04-21T07:49:37.713Z,98411.13
2023-04-21T07:52:05.776Z,98409.44
2023-04-21T07:54:33.853Z,98414.81
2023-04-21T07:57:02.590Z,98410.44
2023-04-21T07:59:30.831Z,98411.78
2023-04-21T08:01:58.916Z,98415.00
2023-04-21T08:04:27.439Z,98405.66
2023-04-21T08:06:56.940Z,98404.97
2023-04-21T08:09:25.155Z,98407.22
2023-04-21T08:11:54.017Z,98407.44
2023-04-21T08:14:22.296Z,98402.81
2023-04-21T08:16:51.112Z,98410.22
2023-04-21T08:19:19.694Z,98399.88
2023-04-21T08:21:48.008Z,98403.00
2023-04-21T08:24:17.715Z,98404.28
2023-04-21T08:26:46.048Z,98407.41
2023-04-21T08:29:14.285Z,98401.31
2023-04-21T08:31:42.601Z,98400.78
2023-04-21T08:34:11.026Z,98397.13
2023-04-21T08:36:39.092Z,98400.34
2023-04-21T08:39:07.181Z,98404.06
2023-04-21T08:41:36.648Z,98408.31
2023-04-21T08:44:06.079Z,98395.13
2023-04-21T08:46:34.818Z,98395.50
2023-04-21T08:49:03.460Z,98399.75
2023-04-21T08:51:32.134Z,98393.88
2023-04-21T08:54:00.222Z,98391.72
2023-04-21T08:56:28.589Z,98386.56
2023-04-21T08:58:58.068Z,98386.25
2023-04-21T09:01:26.181Z,98387.19
2023-04-21T09:03:54.573Z,98376.97
2023-04-21T09:06:22.857Z,98376.72
2023-04-21T09:08:56.642Z,98382.84
2023-04-21T09:11:25.804Z,98381.16
2023-04-21T09:13:59.695Z,98382.25
2023-04-21T09:16:33.176Z,98367.19
2023-04-21T09:19:02.103Z,98370.41
2023-04-21T09:21:32.413Z,98376.00
2023-04-21T09:24:06.709Z,98378.81
2023-04-21T09:26:37.502Z,98378.19
2023-04-21T09:29:07.724Z,98374.09
2023-04-21T09:31:37.327Z,98359.94
2023-04-21T09:34:19.778Z,98369.97
2023-04-21T09:36:48.563Z,98365.28
2023-04-21T09:41:48.138Z,98372.47
2023-04-21T09:44:18.467Z,98368.66
2023-04-21T09:46:50.766Z,98370.59
2023-04-21T09:49:19.537Z,98364.38
2023-04-21T09:54:29.759Z,98359.84
2023-04-21T09:57:01.974Z,98354.06
2023-04-21T09:59:34.338Z,98347.50
2023-04-21T10:02:05.852Z,98348.94
2023-04-21T10:04:36.267Z,98354.25
2023-04-21T10:07:04.900Z,98346.50
2023-04-21T10:09:38.064Z,98344.38
2023-04-21T10:12:09.186Z,98330.53
2023-04-21T10:14:39.395Z,98336.31
2023-04-21T10:17:10.082Z,98339.41
2023-04-21T10:19:40.778Z,98333.44
2023-04-21T10:22:10.501Z,98337.63
2023-04-21T10:24:40.189Z,98337.72
2023-04-21T10:27:12.257Z,98340.38
2023-04-21T10:29:55.243Z,98338.97
2023-04-21T10:32:41.941Z,98321.28
2023-04-21T10:35:11.272Z,98338.97
2023-04-21T10:37:39.505Z,98337.47
2023-04-21T10:40:11.050Z,98337.47
2023-04-21T10:42:39.119Z,98321.69
2023-04-21T10:45:11.797Z,98320.84
2023-04-21T10:47:43.011Z,98318.25
2023-04-21T10:50:19.609Z,98320.66
2023-04-21T10:52:53.601Z,98313.03
2023-04-21T10:55:22.669Z,98313.97
2023-04-21T10:57:50.975Z,98311.94
2023-04-21T11:00:23.071Z,98324.22
2023-04-21T11:02:59.412Z,98314.53
2023-04-21T11:05:38.477Z,98316.47
2023-04-21T11:08:15.094Z,98316.31
2023-04-21T11:10:45.121Z,98316.25
2023-04-21T11:13:13.210Z,98315.81
2023-04-21T11:15:42.891Z,98318.91
2023-04-21T11:18:12.196Z,98316.34
2023-04-21T11:20:46.193Z,98301.97
2023-04-21T11:23:18.899Z,98316.84
2023-04-21T11:25:49.515Z,98308.44
2023-04-21T11:28:23.292Z,98298.34
2023-04-21T11:30:52.976Z,98294.59
2023-04-21T11:33:21.410Z,98305.09
2023-04-21T11:35:51.693Z,98298.78
2023-04-21T11:38:20.016Z,98297.66
2023-04-21T11:40:48.826Z,98285.88
2023-04-21T11:43:17.153Z,98299.53
2023-04-21T11:45:49.693Z,98288.50
2023-04-21T11:48:20.677Z,98282.66
2023-04-21T11:50:49.371Z,98287.72
2023-04-21T11:53:18.003Z,98291.72
2023-04-21T11:55:47.192Z,98278.53
2023-04-21T11:58:16.585Z,98275.84
2023-04-21T12:00:46.810Z,98272.25
2023-04-21T12:03:15.222Z,98277.13
2023-04-21T12:05:44.839Z,98275.53
2023-04-21T12:08:15.992Z,98273.91
2023-04-21T12:10:47.433Z,98267.66
2023-04-21T12:13:23.496Z,98263.03
2023-04-21T12:15:51.815Z,98264.69
2023-04-21T12:18:20.036Z,98259.53
2023-04-21T12:20:53.467Z,98252.66
2023-04-21T12:23:21.609Z,98253.72
2023-04-21T12:25:50.142Z,98250.97
2023-04-21T12:28:18.960Z,98247.22
2023-04-21T12:30:46.950Z,98243.38
2023-04-21T12:33:15.216Z,98239.63
2023-04-21T12:35:43.383Z,98242.13
2023-04-21T12:38:12.937Z,98209.75
2023-04-21T12:40:41.050Z,98238.69
2023-04-21T12:43:09.163Z,98222.47
2023-04-21T12:45:37.423Z,98220.41
2023-04-21T12:48:05.489Z,98244.53
2023-04-21T12:50:33.525Z,98230.66
2023-04-21T12:53:01.676Z,98235.13
2023-04-21T12:55:31.083Z,98236.97
2023-04-21T12:57:59.633Z,98218.88
2023-04-21T13:00:28.570Z,98224.25
2023-04-21T13:02:56.827Z,98228.16
2023-04-21T13:05:25.539Z,98210.63
2023-04-21T13:07:54.425Z,98221.00
2023-04-21T13:10:22.583Z,98207.28
2023-04-21T13:12:52.058Z,98190.47
2023-04-21T13:15:20.128Z,98199.06
2023-04-21T13:17:48.440Z,98211.97
2023-04-21T13:20:19.232Z,98212.47
2023-04-21T13:22:47.507Z,98211.47
2023-04-21T13:25:15.598Z,98206.75
2023-04-21T13:27:43.798Z,98208.63
2023-04-21T13:30:15.939Z,98197.47
2023-04-21T13:32:45.070Z,98195.22
2023-04-21T13:35:13.198Z,98200.44
2023-04-21T13:37:42.496Z,98192.22
2023-04-21T13:40:12.076Z,98196.91
2023-04-21T13:42:40.733Z,98185.97
2023-04-21T13:45:09.785Z,98185.53
2023-04-21T13:47:39.489Z,98195.16
2023-04-21T13:50:09.174Z,98189.28
2023-04-21T13:52:37.432Z,98194.97
2023-04-21T13:55:06.296Z,98188.66
2023-04-21T13:57:34.572Z,98184.78
2023-04-21T14:00:03.875Z,98172.09
2023-04-21T14:02:32.430Z,98176.28
2023-04-21T14:05:02.535Z,98174.13
2023-04-21T14:07:31.421Z,98172.28
2023-04-21T14:09:59.634Z,98174.50
2023-04-21T14:12:27.720Z,98165.38
2023-04-21T14:14:55.846Z,98176.28
2023-04-21T14:17:24.344Z,98163.88
2023-04-21T14:19:54.541Z,98158.56
2023-04-21T14:22:24.779Z,98176.81
2023-04-21T14:24:52.925Z,98171.09
2023-04-21T14:27:21.357Z,98170.63
2023-04-21T14:29:49.384Z,98160.13
2023-04-21T14:32:20.518Z,98156.06
2023-04-21T14:34:53.315Z,98165.00
2023-04-21T14:37:21.968Z,98157.94
2023-04-21T14:39:52.961Z,98152.00
2023-04-21T14:42:21.426Z,98157.97
2023-04-21T14:44:49.552Z,98149.16
2023-04-21T14:47:17.981Z,98150.59
2023-04-21T14:49:46.374Z,98142.94
2023-04-21T14:52:15.007Z,98133.72
2023-04-21T14:54:43.050Z,98139.84
2023-04-21T14:57:20.644Z,98145.06
2023-04-21T14:59:50.784Z,98140.03
2023-04-21T15:02:19.154Z,98133.56
2023-04-21T15:04:47.835Z,98129.25
2023-04-21T15:07:19.825Z,98134.31
2023-04-21T15:09:51.942Z,98129.44
2023-04-21T15:12:21.502Z,98130.28
2023-04-21T15:14:49.697Z,98129.84
2023-04-21T15:17:17.800Z,98131.31
2023-04-21T15:19:45.915Z,98121.28
2023-04-21T15:22:15.372Z,98122.72
2023-04-21T15:24:43.604Z,98116.97
2023-04-21T15:27:11.689Z,98120.13
2023-04-21T15:29:41.238Z,98121.91
2023-04-21T15:32:09.664Z,98116.41
2023-04-21T15:34:37.739Z,98117.84
2023-04-21T15:37:05.848Z,98113.28
2023-04-21T15:39:33.996Z,98116.56
2023-04-21T15:42:04.439Z,98113.28
2023-04-21T15:44:34.106Z,98114.47
2023-04-21T15:47:03.886Z,98116.53
2023-04-21T15:49:32.012Z,98113.91
2023-04-21T15:52:00.174Z,98111.28
2023-04-21T15:54:28.265Z,98106.97
2023-04-21T15:56:57.700Z,98103.69
2023-04-21T15:59:26.352Z,98109.63
2023-04-21T16:01:54.867Z,98102.19
2023-04-21T16:04:24.559Z,98092.53
2023-04-21T16:06:52.857Z,98103.59
2023-04-21T16:09:21.906Z,98098.06
2023-04-21T16:11:51.510Z,98097.06
2023-04-21T16:14:19.944Z,98096.72
2023-04-21T16:16:48.124Z,98097.50
2023-04-21T16:19:16.663Z,98093.50
2023-04-21T16:21:46.155Z,98101.03
2023-04-21T16:24:14.322Z,98093.22
2023-04-21T16:26:42.458Z,98098.91
2023-04-21T16:29:10.560Z,98087.56
2023-04-21T16:31:38.723Z,98092.50
2023-04-21T16:34:06.838Z,98086.13
2023-04-21T16:36:35.159Z,98092.81
2023-04-21T16:39:04.628Z,98092.38
2023-04-21T16:41:32.791Z,98090.16
2023-04-21T16:44:00.883Z,98098.78
2023-04-21T16:46:29.348Z,98092.22
2023-04-21T16:48:57.463Z,98092.25
2023-04-21T16:51:26.989Z,98097.56
2023-04-21T16:53:56.642Z,98093.50
2023-04-21T16:56:26.149Z,98090.88
2023-04-21T16:58:54.377Z,98094.31
2023-04-21T17:01:22.529Z,98093.28
2023-04-21T17:03:50.831Z,98092.72
2023-04-21T17:06:21.364Z,98086.81
2023-04-21T17:08:49.886Z,98086.34
2023-04-21T17:11:17.879Z,98081.66
2023-04-21T17:13:47.315Z,98086.00
2023-04-21T17:16:15.886Z,98080.66
2023-04-21T17:18:43.988Z,98081.00
2023-04-21T17:21:12.609Z,98082.31
2023-04-21T17:23:40.958Z,98087.69
2023-04-21T17:26:11.579Z,98080.31
2023-04-21T17:28:41.517Z,98083.56
2023-04-21T17:31:15.626Z,98091.44
2023-04-21T17:33:44.351Z,98085.41
2023-04-21T17:36:12.754Z,98086.31
2023-04-21T17:38:42.883Z,98092.03
2023-04-21T17:41:11.572Z,98088.81
2023-04-21T17:43:39.673Z,98079.72
2023-04-21T17:46:08.285Z,98084.59
2023-04-21T17:48:38.365Z,98084.81
2023-04-21T17:51:06.617Z,98084.63
2023-04-21T17:53:34.746Z,98085.00
2023-04-21T17:56:03.032Z,98090.59
2023-04-21T17:58:31.010Z,98090.19
2023-04-21T18:00:59.270Z,98099.09
2023-04-21T18:03:27.598Z,98095.84
2023-04-21T18:05:57.606Z,98091.56
2023-04-21T18:08:26.450Z,98101.28
2023-04-21T18:10:55.552Z,98097.09
2023-04-21T18:13:23.580Z,98104.53
2023-04-21T18:15:51.879Z,98104.88
2023-04-21T18:18:19.978Z,98102.91
2023-04-21T18:20:48.363Z,98104.81
2023-04-21T18:23:17.782Z,98107.38
2023-04-21T18:25:45.956Z,98109.56
2023-04-21T18:28:14.407Z,98102.09
2023-04-21T18:30:42.916Z,98104.16
2023-04-21T18:33:11.761Z,98110.03
2023-04-21T18:35:40.241Z,98102.00
2023-04-21T18:38:10.549Z,98103.00
2023-04-21T18:40:40.859Z,98105.75
2023-04-21T18:43:09.783Z,98100.59
2023-04-21T18:45:38.074Z,98111.06
2023-04-21T18:48:06.403Z,98108.94
2023-04-21T18:50:39.490Z,98104.16
2023-04-21T18:53:08.591Z,98107.50
2023-04-21T18:55:37.474Z,98105.56
2023-04-21T18:58:07.157Z,98104.84
2023-04-21T19:00:37.743Z,98110.00
2023-04-21T19:03:07.103Z,98113.69
2023-04-21T19:05:36.848Z,98112.59
2023-04-21T19:08:05.236Z,98110.69
2023-04-21T19:10:35.540Z,98107.88
2023-04-21T19:13:03.631Z,98101.44
2023-04-21T19:15:33.090Z,98098.63
2023-04-21T19:18:01.324Z,98102.81
2023-04-21T19:20:30.326Z,98099.50
2023-04-21T19:22:58.411Z,98101.09
2023-04-21T19:25:26.434Z,98100.03
2023-04-21T19:27:54.562Z,98103.84
2023-04-21T19:30:22.840Z,98105.34
2023-04-21T19:32:52.322Z,98108.97
2023-04-21T19:35:20.945Z,98104.47
2023-04-21T19:37:48.983Z,98106.84
2023-04-21T19:40:17.167Z,98107.63
2023-04-21T19:42:45.334Z,98110.50
2023-04-21T19:45:13.355Z,98109.34
2023-04-21T19:47:41.420Z,98107.16
2023-04-21T19:50:12.946Z,98107.25
2023-04-21T19:52:41.019Z,98104.00
2023-04-21T19:55:09.817Z,98100.03
2023-04-21T19:57:37.906Z,98100.84
2023-04-21T20:00:09.240Z,98097.72
2023-04-21T20:02:40.372Z,98103.59
2023-04-21T20:05:10.976Z,98104.41
2023-04-21T20:07:39.774Z,98107.81
2023-04-21T20:10:08.630Z,98104.88
2023-04-21T20:12:36.924Z,98111.81
2023-04-21T20:15:06.132Z,98111.81
2023-04-21T20:17:34.322Z,98117.97
2023-04-21T20:20:03.386Z,98112.47
2023-04-21T20:22:32.838Z,98115.31
2023-04-21T20:25:00.947Z,98111.84
2023-04-21T20:27:28.969Z,98117.47
2023-04-21T20:29:56.974Z,98120.13
2023-04-21T20:32:25.158Z,98117.59
2023-04-21T20:34:54.101Z,98115.41
2023-04-21T20:37:23.143Z,98110.44
2023-04-21T20:39:52.794Z,98116.06
2023-04-21T20:42:21.909Z,98114.38
2023-04-21T20:44:50.192Z,98112.38
2023-04-21T20:47:18.287Z,98109.19
2023-04-21T20:49:47.392Z,98103.81
2023-04-21T20:52:16.052Z,98119.53
2023-04-21T20:54:44.136Z,98116.03
2023-04-21T20:57:13.578Z,98121.16
2023-04-21T20:59:41.834Z,98122.47
2023-04-21T21:02:10.214Z,98120.75
2023-04-21T21:04:38.351Z,98115.44
2023-04-21T21:07:06.510Z,98123.38
2023-04-21T21:09:34.616Z,98122.63
2023-04-21T21:12:03.542Z,98113.59
2023-04-21T21:14:32.954Z,98117.41
2023-04-21T21:17:01.502Z,98124.00
2023-04-21T21:19:29.786Z,98122.13
2023-04-21T21:21:57.903Z,98123.69
2023-04-21T21:24:26.490Z,98116.78
2023-04-21T21:26:54.535Z,98121.81
2023-04-21T21:29:22.602Z,98118.94
2023-04-21T21:31:52.102Z,98122.00
2023-04-21T21:34:20.294Z,98118.56
2023-04-21T21:36:48.414Z,98116.47
2023-04-21T21:39:16.527Z,98104.66
2023-04-21T21:41:44.493Z,98116.47
2023-04-21T21:44:12.626Z,98115.69
2023-04-21T21:46:41.295Z,98115.47
2023-04-21T21:49:11.485Z,98115.72
2023-04-21T21:51:39.594Z,98127.78
2023-04-21T21:54:07.588Z,98124.19
2023-04-21T21:56:36.661Z,98125.13
2023-04-21T21:59:04.738Z,98120.66
2023-04-21T22:01:32.970Z,98125.31
2023-04-21T22:04:01.241Z,98128.47
2023-04-21T22:06:32.670Z,98127.97
2023-04-21T22:09:00.805Z,98122.72
2023-04-21T22:11:28.839Z,98123.75
2023-04-21T22:14:00.629Z,98117.66
2023-04-21T22:16:34.552Z,98124.44
2023-04-21T22:19:03.558Z,98123.91
2023-04-21T22:21:33.032Z,98122.69
2023-04-21T22:24:01.020Z,98123.91
2023-04-21T22:26:29.078Z,98127.19
2023-04-21T22:28:57.225Z,98122.09
2023-04-21T22:31:25.313Z,98126.13
2023-04-21T22:33:53.410Z,98124.41
2023-04-21T22:36:21.453Z,98130.09
2023-04-21T22:38:50.995Z,98123.47
2023-04-21T22:41:19.040Z,98123.06
2023-04-21T22:43:47.119Z,98124.81
2023-04-21T22:46:15.341Z,98125.03
2023-04-21T22:48:46.540Z,98115.69
2023-04-21T22:51:14.990Z,98122.50
2023-04-21T22:53:42.987Z,98121.75
2023-04-21T22:56:12.364Z,98119.50
2023-04-21T22:58:41.689Z,98115.50
2023-04-21T23:01:09.845Z,98116.22
2023-04-21T23:03:38.065Z,98122.28
2023-04-21T23:06:06.416Z,98120.00
2023-04-21T23:08:34.623Z,98117.47
2023-04-21T23:11:04.204Z,98118.47
2023-04-21T23:13:33.752Z,98115.22
2023-04-21T23:16:02.370Z,98115.75
2023-04-21T23:18:30.543Z,98121.00
2023-04-21T23:20:59.040Z,98123.78
2023-04-21T23:23:27.196Z,98118.97
2023-04-21T23:25:55.218Z,98122.50
2023-04-21T23:28:24.397Z,98114.47
2023-04-21T23:30:53.861Z,98115.00
2023-04-21T23:33:21.956Z,98111.00
2023-04-21T23:35:50.061Z,98106.94
2023-04-21T23:38:18.181Z,98114.75
2023-04-21T23:40:46.178Z,98111.50
2023-04-21T23:43:14.389Z,98104.41
2023-04-21T23:45:42.576Z,98108.44
2023-04-21T23:48:12.035Z,98109.19
2023-04-21T23:50:40.243Z,98113.84
2023-04-21T23:53:08.239Z,98108.56
2023-04-21T23:55:36.315Z,98110.56
2023-04-21T23:58:04.521Z,98097.22
